createdAt,value
2019-05-02T00:01:01.769Z,99.90
2019-05-02T00:03:31.328Z,99.90
2019-05-02T00:06:02.902Z,99.90
2019-05-02T00:08:33.177Z,99.90
2019-05-02T00:11:04.730Z,99.90
2019-05-02T00:13:33.860Z,99.90
2019-05-02T00:16:03.035Z,99.90
2019-05-02T00:18:37.177Z,99.90
2019-05-02T00:21:03.476Z,99.90
2019-05-02T00:23:32.347Z,99.90
2019-05-02T00:26:01.355Z,99.90
2019-05-02T00:28:30.309Z,99.90
2019-05-02T00:30:59.327Z,99.90
2019-05-02T00:33:29.248Z,99.90
2019-05-02T00:35:58.914Z,99.90
2019-05-02T00:38:27.913Z,99.90
2019-05-02T00:40:57.334Z,99.90
2019-05-02T00:43:28.952Z,99.90
2019-05-02T00:45:59.809Z,99.90
2019-05-02T00:48:37.492Z,99.90
2019-05-02T00:51:06.524Z,99.90
2019-05-02T00:53:35.481Z,99.90
2019-05-02T00:56:05.066Z,99.90
2019-05-02T00:58:35.149Z,99.90
2019-05-02T01:01:29.436Z,99.90
2019-05-02T01:03:58.960Z,99.90
2019-05-02T01:06:27.972Z,99.90
2019-05-02T01:08:57.020Z,99.90
2019-05-02T01:11:28.306Z,99.90
2019-05-02T01:13:57.735Z,99.90
2019-05-02T01:16:26.765Z,99.90
2019-05-02T01:18:55.776Z,99.90
2019-05-02T01:21:24.789Z,99.90
2019-05-02T01:23:53.714Z,99.90
2019-05-02T01:26:29.248Z,99.90
2019-05-02T01:29:05.227Z,99.90
2019-05-02T01:31:56.400Z,99.90
2019-05-02T01:34:54.212Z,99.90
2019-05-02T01:37:23.988Z,99.90
2019-05-02T01:39:52.992Z,99.90
2019-05-02T01:42:21.870Z,99.90
2019-05-02T01:44:50.873Z,99.90
2019-05-02T01:47:19.744Z,99.90
2019-05-02T01:49:51.974Z,99.90
2019-05-02T01:52:23.671Z,99.90
2019-05-02T01:54:53.216Z,99.90
2019-05-02T01:57:22.132Z,99.90
2019-05-02T01:59:51.151Z,99.90
2019-05-02T02:02:20.170Z,99.90
2019-05-02T02:04:52.252Z,99.90
2019-05-02T02:07:21.132Z,99.90
2019-05-02T02:09:50.224Z,99.90
2019-05-02T02:12:19.149Z,99.90
2019-05-02T02:14:53.307Z,99.90
2019-05-02T02:17:18.888Z,99.90
2019-05-02T02:19:52.626Z,99.90
2019-05-02T02:22:33.761Z,99.90
2019-05-02T02:25:22.338Z,99.90
2019-05-02T02:27:54.941Z,99.90
2019-05-02T02:30:24.455Z,99.90
2019-05-02T02:32:52.683Z,99.90
2019-05-02T02:35:21.597Z,99.90
2019-05-02T02:37:52.963Z,99.90
2019-05-02T02:40:21.316Z,99.90
2019-05-02T02:42:50.321Z,99.90
2019-05-02T02:45:51.869Z,99.90
2019-05-02T02:48:21.412Z,99.90
2019-05-02T02:50:50.423Z,99.90
2019-05-02T02:53:29.936Z,99.90
2019-05-02T02:56:01.811Z,99.90
2019-05-02T02:58:30.736Z,99.90
2019-05-02T03:00:59.777Z,99.90
2019-05-02T03:03:31.376Z,99.90
2019-05-02T03:06:05.569Z,99.90
2019-05-02T03:08:30.404Z,99.90
2019-05-02T03:10:59.484Z,99.90
2019-05-02T03:13:52.629Z,99.90
2019-05-02T03:16:17.993Z,99.90
2019-05-02T03:18:46.928Z,99.90
2019-05-02T03:21:20.342Z,99.90
2019-05-02T03:23:46.694Z,99.90
2019-05-02T03:26:17.248Z,99.90
2019-05-02T03:28:57.099Z,99.90
2019-05-02T03:31:29.776Z,99.90
2019-05-02T03:34:00.230Z,99.90
2019-05-02T03:36:29.042Z,99.90
2019-05-02T03:38:49.607Z,99.90
2019-05-02T03:41:20.707Z,99.90
2019-05-02T03:43:50.371Z,99.90
2019-05-02T03:46:20.559Z,99.90
2019-05-02T03:48:50.354Z,99.90
2019-05-02T03:51:21.916Z,99.90
2019-05-02T03:54:05.761Z,99.90
2019-05-02T03:56:23.713Z,99.90
2019-05-02T03:58:56.408Z,99.90
2019-05-02T04:01:23.978Z,99.90
2019-05-02T04:03:53.981Z,99.90
2019-05-02T04:06:23.683Z,99.90
2019-05-02T04:08:58.856Z,99.90
2019-05-02T04:11:32.808Z,99.90
2019-05-02T04:13:57.956Z,99.90
2019-05-02T04:16:30.253Z,99.90
2019-05-02T04:19:04.623Z,99.90
2019-05-02T04:21:34.632Z,99.90
2019-05-02T04:24:12.821Z,99.90
2019-05-02T04:26:35.353Z,99.90
2019-05-02T04:29:04.362Z,99.90
2019-05-02T04:31:33.797Z,99.90
2019-05-02T04:34:14.120Z,99.90
2019-05-02T04:36:34.036Z,99.90
2019-05-02T04:39:05.638Z,99.90
2019-05-02T04:41:34.705Z,99.90
2019-05-02T04:44:03.766Z,99.90
2019-05-02T04:46:32.690Z,99.90
2019-05-02T04:49:01.646Z,99.90
2019-05-02T04:51:31.976Z,99.90
2019-05-02T04:54:01.307Z,99.90
2019-05-02T04:56:30.343Z,99.90
2019-05-02T04:59:01.990Z,99.90
2019-05-02T05:01:33.098Z,99.90
2019-05-02T05:04:03.096Z,99.90
2019-05-02T05:06:31.156Z,99.90
2019-05-02T05:09:04.189Z,99.90
2019-05-02T05:11:30.772Z,99.90
2019-05-02T05:14:00.394Z,99.90
2019-05-02T05:16:29.412Z,99.90
2019-05-02T05:19:00.084Z,99.90
2019-05-02T05:21:28.906Z,99.90
2019-05-02T05:24:18.165Z,99.90
2019-05-02T05:26:50.279Z,99.90
2019-05-02T05:29:23.132Z,99.90
2019-05-02T05:31:49.950Z,99.90
2019-05-02T05:34:22.917Z,99.90
2019-05-02T05:36:49.548Z,99.90
2019-05-02T05:39:18.550Z,99.90
2019-05-02T05:41:51.045Z,99.90
2019-05-02T05:44:18.255Z,99.90
2019-05-02T05:46:49.442Z,99.90
2019-05-02T05:49:21.661Z,99.90
2019-05-02T05:51:49.474Z,99.90
2019-05-02T05:54:19.484Z,99.90
2019-05-02T05:56:49.113Z,99.90
2019-05-02T05:59:22.213Z,99.90
2019-05-02T06:01:51.539Z,99.90
2019-05-02T06:04:23.533Z,99.90
2019-05-02T06:06:54.130Z,99.90
2019-05-02T06:09:20.663Z,99.90
2019-05-02T06:11:50.699Z,99.90
2019-05-02T06:14:24.496Z,99.90
2019-05-02T06:16:51.775Z,99.90
2019-05-02T06:19:21.198Z,99.90
2019-05-02T06:21:50.135Z,99.90
2019-05-02T06:24:19.078Z,99.90
2019-05-02T06:26:49.906Z,99.90
2019-05-02T06:29:20.801Z,99.90
2019-05-02T06:31:49.542Z,99.90
2019-05-02T06:34:18.546Z,99.90
2019-05-02T06:36:48.453Z,99.90
2019-05-02T06:39:17.452Z,99.90
2019-05-02T06:41:46.421Z,99.90
2019-05-02T06:44:18.431Z,99.90
2019-05-02T06:46:46.161Z,99.90
2019-05-02T06:49:15.254Z,99.90
2019-05-02T06:51:44.383Z,99.90
2019-05-02T06:54:13.421Z,99.90
2019-05-02T06:56:43.045Z,99.90
2019-05-02T06:59:17.924Z,99.90
2019-05-02T07:01:43.972Z,99.90
2019-05-02T07:04:17.551Z,99.90
2019-05-02T07:06:57.168Z,99.90
2019-05-02T07:09:15.152Z,99.90
2019-05-02T07:11:56.660Z,99.90
2019-05-02T07:14:18.683Z,99.90
2019-05-02T07:17:00.816Z,99.90
2019-05-02T07:19:35.704Z,99.90
2019-05-02T07:22:04.828Z,99.90
2019-05-02T07:24:33.754Z,99.90
2019-05-02T07:27:02.808Z,99.90
2019-05-02T07:29:31.796Z,99.90
2019-05-02T07:32:00.749Z,99.90
2019-05-02T07:34:29.685Z,99.90
2019-05-02T07:36:58.721Z,99.90
2019-05-02T07:39:27.721Z,99.90
2019-05-02T07:42:00.606Z,99.90
2019-05-02T07:44:32.705Z,99.90
2019-05-02T07:47:02.750Z,99.90
2019-05-02T07:49:32.114Z,99.90
2019-05-02T07:51:59.773Z,99.90
2019-05-02T07:54:30.089Z,99.90
2019-05-02T07:57:02.062Z,98.20
2019-05-02T07:59:29.777Z,92.60
2019-05-02T08:01:58.797Z,91.20
2019-05-02T08:04:27.816Z,95.90
2019-05-02T08:06:56.752Z,90.70
2019-05-02T08:09:25.784Z,93.90
2019-05-02T08:11:54.808Z,91.10
2019-05-02T08:14:23.808Z,80.10
2019-05-02T08:17:05.011Z,80.40
2019-05-02T08:19:23.737Z,83.90
2019-05-02T08:21:52.732Z,86.70
2019-05-02T08:24:21.594Z,84.40
2019-05-02T08:27:04.160Z,82.10
2019-05-02T08:29:33.469Z,88.60
2019-05-02T08:32:02.477Z,82.20
2019-05-02T08:34:32.801Z,83.60
2019-05-02T08:37:03.415Z,80.10
2019-05-02T08:39:33.943Z,80.40
2019-05-02T08:42:03.678Z,82.00
2019-05-02T08:44:32.637Z,82.90
2019-05-02T08:47:01.629Z,85.20
2019-05-02T08:49:30.689Z,84.00
2019-05-02T08:51:59.719Z,84.50
2019-05-02T08:54:32.804Z,87.40
2019-05-02T08:57:00.547Z,81.80
2019-05-02T08:59:29.732Z,80.30
2019-05-02T09:01:58.732Z,79.00
2019-05-02T09:04:29.041Z,78.60
2019-05-02T09:07:00.492Z,77.10
2019-05-02T09:09:29.516Z,78.70
2019-05-02T09:12:09.675Z,79.10
2019-05-02T09:14:29.405Z,78.10
2019-05-02T09:17:00.291Z,75.00
2019-05-02T09:19:34.083Z,78.70
2019-05-02T09:21:59.901Z,75.90
2019-05-02T09:24:28.867Z,77.70
2019-05-02T09:26:57.881Z,76.80
2019-05-02T09:29:26.892Z,73.20
2019-05-02T09:31:55.934Z,71.40
2019-05-02T09:34:26.684Z,69.30
2019-05-02T09:36:55.476Z,68.10
2019-05-02T09:39:27.449Z,77.60
2019-05-02T09:41:55.148Z,71.90
2019-05-02T09:44:24.169Z,71.30
2019-05-02T09:46:56.872Z,69.10
2019-05-02T09:49:23.832Z,70.60
2019-05-02T09:51:59.077Z,66.00
2019-05-02T09:54:23.612Z,63.40
2019-05-02T09:56:52.634Z,58.60
2019-05-02T09:59:29.929Z,59.50
2019-05-02T10:01:56.835Z,59.90
2019-05-02T10:04:26.382Z,59.80
2019-05-02T10:06:55.332Z,67.20
2019-05-02T10:09:27.175Z,66.20
2019-05-02T10:11:54.996Z,62.10
2019-05-02T10:14:23.926Z,62.20
2019-05-02T10:16:53.144Z,66.60
2019-05-02T10:19:25.838Z,60.20
2019-05-02T10:21:56.184Z,59.70
2019-05-02T10:24:23.748Z,60.60
2019-05-02T10:26:57.093Z,66.50
2019-05-02T10:29:28.535Z,63.80
2019-05-02T10:31:54.281Z,66.20
2019-05-02T10:34:23.308Z,65.50
2019-05-02T10:36:58.545Z,73.50
2019-05-02T10:39:23.610Z,73.80
2019-05-02T10:41:52.853Z,67.30
2019-05-02T10:44:22.606Z,66.60
2019-05-02T10:46:55.784Z,68.40
2019-05-02T10:49:32.079Z,71.40
2019-05-02T10:52:02.613Z,71.60
2019-05-02T10:54:33.661Z,67.40
2019-05-02T10:57:03.641Z,69.30
2019-05-02T10:59:32.869Z,67.90
2019-05-02T11:02:24.953Z,69.10
2019-05-02T11:04:57.005Z,68.40
2019-05-02T11:07:26.515Z,65.10
2019-05-02T11:09:57.267Z,69.00
2019-05-02T11:12:43.519Z,68.00
2019-05-02T11:15:21.950Z,66.90
2019-05-02T11:17:52.882Z,71.80
2019-05-02T11:20:23.104Z,67.50
2019-05-02T11:22:54.508Z,71.90
2019-05-02T11:25:23.130Z,73.60
2019-05-02T11:27:52.600Z,65.80
2019-05-02T11:30:26.397Z,71.20
2019-05-02T11:32:52.516Z,71.40
2019-05-02T11:35:22.385Z,79.50
2019-05-02T11:37:51.728Z,71.90
2019-05-02T11:40:22.760Z,66.70
2019-05-02T11:42:52.205Z,64.50
2019-05-02T11:45:22.686Z,59.30
2019-05-02T11:47:54.443Z,58.60
2019-05-02T11:50:26.659Z,59.90
2019-05-02T11:52:53.190Z,65.70
2019-05-02T11:55:24.665Z,63.90
2019-05-02T11:57:52.912Z,56.70
2019-05-02T12:00:21.932Z,59.00
2019-05-02T12:02:58.749Z,56.80
2019-05-02T12:05:39.395Z,58.30
2019-05-02T12:08:09.601Z,55.10
2019-05-02T12:10:39.237Z,55.20
2019-05-02T12:13:13.838Z,56.60
2019-05-02T12:15:41.592Z,59.00
2019-05-02T12:18:09.781Z,59.60
2019-05-02T12:20:38.731Z,60.30
2019-05-02T12:23:09.203Z,58.80
2019-05-02T12:25:38.281Z,60.60
2019-05-02T12:28:07.525Z,60.40
2019-05-02T12:30:37.873Z,61.80
2019-05-02T12:33:07.063Z,58.40
2019-05-02T12:35:36.100Z,59.30
2019-05-02T12:38:05.212Z,57.10
2019-05-02T12:40:34.229Z,60.10
2019-05-02T12:43:03.251Z,58.90
2019-05-02T12:45:33.709Z,60.10
2019-05-02T12:48:02.777Z,58.80
2019-05-02T12:50:32.229Z,59.90
2019-05-02T12:53:02.919Z,58.80
2019-05-02T12:55:32.572Z,60.30
2019-05-02T12:58:04.856Z,59.10
2019-05-02T13:00:33.890Z,61.30
2019-05-02T13:03:14.199Z,64.60
2019-05-02T13:05:43.132Z,64.70
2019-05-02T13:08:12.421Z,64.30
2019-05-02T13:11:14.320Z,65.60
2019-05-02T13:13:43.675Z,67.90
2019-05-02T13:16:12.807Z,68.90
2019-05-02T13:18:42.456Z,69.40
2019-05-02T13:21:23.363Z,72.20
2019-05-02T13:24:24.597Z,72.90
2019-05-02T13:26:59.306Z,73.00
2019-05-02T13:29:24.261Z,70.90
2019-05-02T13:32:03.061Z,75.30
2019-05-02T13:34:41.969Z,76.20
2019-05-02T13:37:12.476Z,77.00
2019-05-02T13:39:59.304Z,70.80
2019-05-02T13:42:28.325Z,72.60
2019-05-02T13:45:02.821Z,71.60
2019-05-02T13:47:32.543Z,72.70
2019-05-02T13:50:03.961Z,72.40
2019-05-02T13:52:33.219Z,73.40
2019-05-02T13:55:02.608Z,73.30
2019-05-02T13:57:35.011Z,75.70
2019-05-02T14:00:02.461Z,74.50
2019-05-02T14:02:36.720Z,74.30
2019-05-02T14:05:07.145Z,76.70
2019-05-02T14:07:36.181Z,76.00
2019-05-02T14:10:12.500Z,79.30
2019-05-02T14:12:49.748Z,77.00
2019-05-02T14:15:22.122Z,79.50
2019-05-02T14:17:52.524Z,80.00
2019-05-02T14:20:22.533Z,80.10
2019-05-02T14:22:52.730Z,81.70
2019-05-02T14:25:22.511Z,81.10
2019-05-02T14:27:55.495Z,83.60
2019-05-02T14:30:36.052Z,83.60
2019-05-02T14:32:54.944Z,81.90
2019-05-02T14:35:29.378Z,83.90
2019-05-02T14:38:13.122Z,84.00
2019-05-02T14:41:03.384Z,86.50
2019-05-02T14:43:53.209Z,88.60
2019-05-02T14:46:28.917Z,88.30
2019-05-02T14:48:54.984Z,89.00
2019-05-02T14:51:27.780Z,91.10
2019-05-02T14:53:57.416Z,91.00
2019-05-02T14:56:37.491Z,92.10
2019-05-02T14:59:09.226Z,92.10
2019-05-02T15:01:36.457Z,91.80
2019-05-02T15:04:08.209Z,92.90
2019-05-02T15:06:38.386Z,91.80
2019-05-02T15:09:08.024Z,92.30
2019-05-02T15:11:42.615Z,93.80
2019-05-02T15:14:11.357Z,93.50
2019-05-02T15:16:44.658Z,96.40
2019-05-02T15:19:12.601Z,96.30
2019-05-02T15:21:42.242Z,96.50
2019-05-02T15:24:11.961Z,96.80
2019-05-02T15:26:41.852Z,97.50
2019-05-02T15:29:12.066Z,99.40
2019-05-02T15:31:46.820Z,99.90
2019-05-02T15:34:27.518Z,99.90
2019-05-02T15:36:56.449Z,99.90
2019-05-02T15:41:55.977Z,99.90
2019-05-02T15:44:27.081Z,99.90
2019-05-02T15:46:58.526Z,99.90
2019-05-02T15:49:26.573Z,99.90
2019-05-02T15:51:55.492Z,99.90
2019-05-02T15:54:24.421Z,99.90
2019-05-02T15:57:00.638Z,99.90
2019-05-02T15:59:43.232Z,99.90
2019-05-02T16:02:10.456Z,99.90
2019-05-02T16:04:41.741Z,99.90
2019-05-02T16:07:12.155Z,99.90
2019-05-02T16:09:41.720Z,99.90
2019-05-02T16:12:12.232Z,99.90
2019-05-02T16:14:42.812Z,99.90
2019-05-02T16:17:12.446Z,99.90
2019-05-02T16:19:46.692Z,99.90
2019-05-02T16:22:17.142Z,99.90
2019-05-02T16:24:48.729Z,99.90
2019-05-02T16:27:23.778Z,99.90
2019-05-02T16:29:47.763Z,99.90
2019-05-02T16:32:35.663Z,99.90
2019-05-02T16:35:12.291Z,99.90
2019-05-02T16:37:38.955Z,99.90
2019-05-02T16:40:08.757Z,99.90
2019-05-02T16:42:38.812Z,99.90
2019-05-02T16:45:09.092Z,99.90
2019-05-02T16:47:38.114Z,99.90
2019-05-02T16:50:08.613Z,99.90
2019-05-02T16:52:38.159Z,99.90
2019-05-02T16:55:13.598Z,99.90
2019-05-02T16:57:39.759Z,99.90
2019-05-02T17:00:11.386Z,99.90
2019-05-02T17:02:44.910Z,99.90
2019-05-02T17:05:12.457Z,99.90
2019-05-02T17:08:10.838Z,99.90
2019-05-02T17:10:56.742Z,99.90
2019-05-02T17:13:27.453Z,99.90
2019-05-02T17:15:54.870Z,99.90
2019-05-02T17:18:24.457Z,99.90
2019-05-02T17:20:56.786Z,99.90
2019-05-02T17:23:24.151Z,99.90
2019-05-02T17:25:53.034Z,99.90
2019-05-02T17:28:22.375Z,99.90
2019-05-02T17:30:52.452Z,99.90
2019-05-02T17:33:21.851Z,99.90
2019-05-02T17:35:52.248Z,99.90
2019-05-02T17:38:27.379Z,99.90
2019-05-02T17:40:54.355Z,99.90
2019-05-02T17:43:22.852Z,99.90
2019-05-02T17:45:51.862Z,99.90
2019-05-02T17:48:20.848Z,99.90
2019-05-02T17:51:07.296Z,99.90
2019-05-02T17:53:41.487Z,99.90
2019-05-02T17:56:07.057Z,99.90
2019-05-02T17:58:36.067Z,99.90
2019-05-02T18:01:07.917Z,99.90
2019-05-02T18:03:36.874Z,99.90
2019-05-02T18:06:07.467Z,99.90
2019-05-02T18:08:36.662Z,99.90
2019-05-02T18:11:05.699Z,99.90
2019-05-02T18:13:43.806Z,99.90
2019-05-02T18:16:16.652Z,99.90
2019-05-02T18:18:46.621Z,99.90
2019-05-02T18:21:17.724Z,99.90
2019-05-02T18:23:44.892Z,99.90
2019-05-02T18:26:13.904Z,99.90
2019-05-02T18:28:49.048Z,99.90
2019-05-02T18:31:13.812Z,99.90
2019-05-02T18:33:42.724Z,99.90
2019-05-02T18:36:11.664Z,99.90
2019-05-02T18:38:41.729Z,99.90
2019-05-02T18:41:12.034Z,99.90
2019-05-02T18:43:45.052Z,99.90
2019-05-02T18:46:12.783Z,99.90
2019-05-02T18:48:46.819Z,99.90
2019-05-02T18:51:17.253Z,99.90
2019-05-02T18:53:45.043Z,99.90
2019-05-02T18:56:14.044Z,99.90
2019-05-02T18:58:45.255Z,99.90
2019-05-02T19:01:17.839Z,99.90
2019-05-02T19:03:47.063Z,99.90
2019-05-02T19:06:16.044Z,99.90
2019-05-02T19:08:49.842Z,99.90
2019-05-02T19:11:18.250Z,99.90
2019-05-02T19:13:47.279Z,99.90
2019-05-02T19:16:19.384Z,99.90
2019-05-02T19:18:49.052Z,99.90
2019-05-02T19:21:17.896Z,99.90
2019-05-02T19:23:46.888Z,99.90
2019-05-02T19:26:15.824Z,99.90
2019-05-02T19:29:08.517Z,99.90
2019-05-02T19:31:46.015Z,99.90
2019-05-02T19:34:16.844Z,99.90
2019-05-02T19:36:43.570Z,99.90
2019-05-02T19:39:13.144Z,99.90
2019-05-02T19:41:43.900Z,99.90
2019-05-02T19:44:15.228Z,99.90
2019-05-02T19:46:43.625Z,99.90
2019-05-02T19:49:16.128Z,99.90
2019-05-02T19:51:43.464Z,99.90
2019-05-02T19:54:12.579Z,99.90
2019-05-02T19:56:45.985Z,99.90
2019-05-02T19:59:16.835Z,99.90
2019-05-02T20:01:43.046Z,99.90
2019-05-02T20:04:12.000Z,99.90
2019-05-02T20:06:41.838Z,99.90
2019-05-02T20:09:11.119Z,99.90
2019-05-02T20:11:42.436Z,99.90
2019-05-02T20:14:12.527Z,99.90
2019-05-02T20:16:52.629Z,99.90
2019-05-02T20:19:23.171Z,99.90
2019-05-02T20:22:14.077Z,99.90
2019-05-02T20:25:00.196Z,99.90
2019-05-02T20:27:28.408Z,99.90
2019-05-02T20:29:57.857Z,99.90
2019-05-02T20:32:26.941Z,99.90
2019-05-02T20:34:55.945Z,99.90
2019-05-02T20:37:25.300Z,99.90
2019-05-02T20:39:54.384Z,99.90
2019-05-02T20:42:23.410Z,99.90
2019-05-02T20:44:52.883Z,99.90
2019-05-02T20:47:25.176Z,99.90
2019-05-02T20:49:54.216Z,99.90
2019-05-02T20:52:23.245Z,99.90
2019-05-02T20:54:52.537Z,99.90
2019-05-02T20:57:21.552Z,99.90
2019-05-02T20:59:52.573Z,99.90
2019-05-02T21:02:21.376Z,99.90
2019-05-02T21:04:52.115Z,99.90
2019-05-02T21:07:29.422Z,99.90
2019-05-02T21:10:06.373Z,99.90
2019-05-02T21:12:35.367Z,99.90
2019-05-02T21:15:04.973Z,99.90
2019-05-02T21:17:33.891Z,99.90
2019-05-02T21:20:02.893Z,99.90
2019-05-02T21:22:32.849Z,99.90
2019-05-02T21:25:02.467Z,99.90
2019-05-02T21:27:32.445Z,99.90
2019-05-02T21:30:01.481Z,99.90
2019-05-02T21:32:32.057Z,99.90
2019-05-02T21:35:02.805Z,99.90
2019-05-02T21:37:32.025Z,99.90
2019-05-02T21:40:02.791Z,99.90
2019-05-02T21:42:31.952Z,99.90
2019-05-02T21:45:02.404Z,99.90
2019-05-02T21:47:31.890Z,99.90
2019-05-02T21:50:09.108Z,99.90
2019-05-02T21:52:57.187Z,99.90
2019-05-02T21:55:42.960Z,99.90
2019-05-02T21:58:12.130Z,99.90
2019-05-02T22:00:59.273Z,99.90
2019-05-02T22:03:28.288Z,99.90
2019-05-02T22:05:57.300Z,99.90
2019-05-02T22:08:26.348Z,99.90
2019-05-02T22:10:55.341Z,99.90
2019-05-02T22:13:24.208Z,99.90
2019-05-02T22:16:02.313Z,99.90
2019-05-02T22:18:32.146Z,99.90
2019-05-02T22:21:01.681Z,99.90
2019-05-02T22:23:33.590Z,99.90
2019-05-02T22:26:02.098Z,99.90
2019-05-02T22:28:32.739Z,99.90
2019-05-02T22:31:03.295Z,99.90
2019-05-02T22:33:32.854Z,99.90
2019-05-02T22:36:02.066Z,99.90
2019-05-02T22:38:44.358Z,99.90
2019-05-02T22:41:13.324Z,99.90
2019-05-02T22:43:42.326Z,99.90
2019-05-02T22:46:14.063Z,99.90
2019-05-02T22:48:43.228Z,99.90
2019-05-02T22:51:12.232Z,99.90
2019-05-02T22:53:41.810Z,99.90
2019-05-02T22:56:11.776Z,99.90
2019-05-02T22:58:42.086Z,99.90
2019-05-02T23:01:11.256Z,99.90
2019-05-02T23:03:41.853Z,99.90
2019-05-02T23:06:12.527Z,99.90
2019-05-02T23:08:43.428Z,99.90
2019-05-02T23:11:12.976Z,99.90
2019-05-02T23:13:42.364Z,99.90
2019-05-02T23:16:11.368Z,99.90
2019-05-02T23:18:40.288Z,99.90
2019-05-02T23:21:09.284Z,99.90
2019-05-02T23:23:38.288Z,99.90
2019-05-02T23:26:13.836Z,99.90
2019-05-02T23:28:44.920Z,99.90
2019-05-02T23:31:14.195Z,99.90
2019-05-02T23:33:58.434Z,99.90
2019-05-02T23:36:28.932Z,99.90
2019-05-02T23:38:58.069Z,99.90
2019-05-02T23:41:27.094Z,99.90
2019-05-02T23:43:56.096Z,99.90
2019-05-02T23:46:25.099Z,99.90
2019-05-02T23:48:54.100Z,99.90
2019-05-02T23:51:23.126Z,99.90
2019-05-02T23:53:52.786Z,99.90
2019-05-02T23:56:22.144Z,99.90
2019-05-02T23:58:51.955Z,99.90
